HAZ3615 ZGGG-ZPPP
Flight info
| Callsign | HAZ3615 |
|---|---|
| Flight time | N/A |
| Altitude | 36100 |
| Route | VIBOS9 VIBOS R473 ZUH R200 LH R339 BSE A599 LXI LXI9E |
| Aircraft | B77W/H-SDE1E2E3FGHIJ2J3J4J5M1RWXY/LB1D1 |
Departure
| Time | N/A |
|---|---|
| Airport | Guangzhou Baiyun International Airport (ZGGG) |
Arrival
| Time | 2026-05-07 05:28 |
|---|---|
| Airport | Kunming Changshui International Airport (ZPPP) |
| Time | Latitude | Longitude | Altitude | Speed | Heading |
|---|---|---|---|---|---|
| 2026-05-07 04:25 | 21.67570 | 109.31793 | 35985 ft | 489 kts | 309° |
| 2026-05-07 04:25 | 21.69734 | 109.29027 | 35980 ft | 489 kts | 309° |
| 2026-05-07 04:26 | 21.74100 | 109.23438 | 35987 ft | 490 kts | 309° |
| 2026-05-07 04:26 | 21.78490 | 109.17810 | 35990 ft | 489 kts | 309° |
| 2026-05-07 04:27 | 21.82865 | 109.12195 | 35995 ft | 489 kts | 309° |
| 2026-05-07 04:27 | 21.87262 | 109.06557 | 35994 ft | 488 kts | 309° |
| 2026-05-07 04:28 | 21.91679 | 109.00919 | 35993 ft | 488 kts | 309° |
| 2026-05-07 04:28 | 21.96059 | 108.95320 | 35996 ft | 488 kts | 309° |
| 2026-05-07 04:29 | 22.00464 | 108.89683 | 35998 ft | 488 kts | 309° |
| 2026-05-07 04:29 | 22.04885 | 108.84019 | 36001 ft | 489 kts | 309° |
| 2026-05-07 04:30 | 22.09270 | 108.78394 | 36001 ft | 489 kts | 309° |
| 2026-05-07 04:30 | 22.13673 | 108.72749 | 36005 ft | 490 kts | 309° |
| 2026-05-07 04:31 | 22.18072 | 108.67127 | 36000 ft | 489 kts | 309° |
| 2026-05-07 04:31 | 22.22523 | 108.61431 | 35997 ft | 489 kts | 309° |
| 2026-05-07 04:32 | 22.26894 | 108.55832 | 35998 ft | 489 kts | 309° |
| 2026-05-07 04:32 | 22.31335 | 108.50136 | 35997 ft | 490 kts | 309° |
| 2026-05-07 04:33 | 22.35736 | 108.44486 | 35995 ft | 491 kts | 309° |
| 2026-05-07 04:33 | 22.40141 | 108.38824 | 35991 ft | 491 kts | 309° |
| 2026-05-07 04:34 | 22.44537 | 108.33167 | 35999 ft | 490 kts | 309° |
| 2026-05-07 04:34 | 22.48957 | 108.27473 | 35997 ft | 489 kts | 309° |
| 2026-05-07 04:35 | 22.53358 | 108.21798 | 35997 ft | 489 kts | 309° |
| 2026-05-07 04:35 | 22.57771 | 108.16101 | 35999 ft | 490 kts | 309° |
| 2026-05-07 04:36 | 22.62364 | 108.10588 | 35998 ft | 491 kts | 313° |
| 2026-05-07 04:36 | 22.67110 | 108.05232 | 35996 ft | 491 kts | 313° |
| 2026-05-07 04:37 | 22.71854 | 107.99844 | 35992 ft | 490 kts | 312° |
| 2026-05-07 04:37 | 22.76572 | 107.94463 | 35987 ft | 490 kts | 312° |
| 2026-05-07 04:38 | 22.81275 | 107.89084 | 35990 ft | 490 kts | 312° |
| 2026-05-07 04:38 | 22.86011 | 107.83656 | 35990 ft | 490 kts | 312° |
| 2026-05-07 04:39 | 22.90698 | 107.78275 | 35998 ft | 491 kts | 312° |
| 2026-05-07 04:39 | 22.95414 | 107.72854 | 35998 ft | 491 kts | 312° |
| 2026-05-07 04:40 | 23.00139 | 107.67417 | 36009 ft | 490 kts | 312° |
| 2026-05-07 04:40 | 23.04827 | 107.62016 | 36022 ft | 491 kts | 312° |
| 2026-05-07 04:41 | 23.09522 | 107.56606 | 36026 ft | 491 kts | 312° |
| 2026-05-07 04:41 | 23.14227 | 107.51180 | 36024 ft | 491 kts | 312° |
| 2026-05-07 04:42 | 23.18913 | 107.45769 | 36026 ft | 490 kts | 312° |
| 2026-05-07 04:42 | 23.23604 | 107.40345 | 36022 ft | 489 kts | 311° |
| 2026-05-07 04:43 | 23.28284 | 107.34928 | 36031 ft | 490 kts | 311° |
| 2026-05-07 04:43 | 23.32989 | 107.29477 | 36038 ft | 490 kts | 311° |
| 2026-05-07 04:44 | 23.37680 | 107.24036 | 36049 ft | 490 kts | 311° |
| 2026-05-07 04:44 | 23.42351 | 107.18612 | 36051 ft | 490 kts | 311° |
| 2026-05-07 04:45 | 23.47055 | 107.13144 | 36052 ft | 489 kts | 311° |
| 2026-05-07 04:45 | 23.51700 | 107.07738 | 36049 ft | 489 kts | 311° |
| 2026-05-07 04:46 | 23.56370 | 107.02296 | 36047 ft | 490 kts | 311° |
| 2026-05-07 04:46 | 23.61082 | 106.96801 | 36048 ft | 489 kts | 311° |
| 2026-05-07 04:47 | 23.65718 | 106.91387 | 36040 ft | 489 kts | 311° |
| 2026-05-07 04:47 | 23.70395 | 106.85919 | 36035 ft | 489 kts | 311° |
| 2026-05-07 04:48 | 23.75035 | 106.80489 | 36020 ft | 489 kts | 311° |
| 2026-05-07 04:48 | 23.79713 | 106.75008 | 36026 ft | 490 kts | 310° |
| 2026-05-07 04:49 | 23.84360 | 106.69556 | 36047 ft | 490 kts | 311° |
| 2026-05-07 04:49 | 23.88994 | 106.64058 | 36041 ft | 487 kts | 307° |
| 2026-05-07 04:50 | 23.92483 | 106.57715 | 36053 ft | 485 kts | 291° |
| 2026-05-07 04:50 | 23.94285 | 106.50627 | 36070 ft | 481 kts | 282° |
| 2026-05-07 04:51 | 23.95738 | 106.43475 | 36077 ft | 481 kts | 282° |
| 2026-05-07 04:51 | 23.97180 | 106.36345 | 36087 ft | 482 kts | 282° |
| 2026-05-07 04:52 | 23.98637 | 106.29123 | 36091 ft | 482 kts | 281° |
| 2026-05-07 04:52 | 24.00080 | 106.21952 | 36090 ft | 481 kts | 281° |
| 2026-05-07 04:53 | 24.01519 | 106.14784 | 36093 ft | 482 kts | 281° |
| 2026-05-07 04:53 | 24.02957 | 106.07603 | 36095 ft | 482 kts | 281° |
| 2026-05-07 04:54 | 24.04389 | 106.00429 | 36104 ft | 482 kts | 281° |
| 2026-05-07 04:54 | 24.05821 | 105.93240 | 36121 ft | 480 kts | 281° |
| 2026-05-07 04:55 | 24.07245 | 105.86074 | 36134 ft | 482 kts | 281° |
| 2026-05-07 04:55 | 24.08671 | 105.78877 | 36160 ft | 481 kts | 281° |
| 2026-05-07 04:56 | 24.10090 | 105.71697 | 36171 ft | 481 kts | 281° |
| 2026-05-07 04:56 | 24.11696 | 105.64566 | 36178 ft | 481 kts | 284° |
| 2026-05-07 04:57 | 24.13464 | 105.57454 | 36167 ft | 481 kts | 284° |
| 2026-05-07 04:57 | 24.15212 | 105.50351 | 36176 ft | 481 kts | 284° |
| 2026-05-07 04:58 | 24.16950 | 105.43242 | 36188 ft | 480 kts | 284° |
| 2026-05-07 04:58 | 24.18663 | 105.36198 | 36192 ft | 481 kts | 284° |
| 2026-05-07 04:59 | 24.20378 | 105.29121 | 36214 ft | 481 kts | 283° |
| 2026-05-07 04:59 | 24.22106 | 105.21974 | 36218 ft | 480 kts | 283° |
| 2026-05-07 05:00 | 24.23709 | 105.14892 | 36218 ft | 480 kts | 282° |
| 2026-05-07 05:00 | 24.25282 | 105.07756 | 36220 ft | 479 kts | 282° |
| 2026-05-07 05:01 | 24.26863 | 105.00587 | 36237 ft | 481 kts | 282° |
| 2026-05-07 05:01 | 24.28430 | 104.93477 | 36246 ft | 481 kts | 282° |
| 2026-05-07 05:02 | 24.30000 | 104.86339 | 36256 ft | 480 kts | 282° |
| 2026-05-07 05:02 | 24.31571 | 104.79187 | 36265 ft | 479 kts | 282° |
| 2026-05-07 05:03 | 24.33138 | 104.72037 | 36268 ft | 480 kts | 282° |
| 2026-05-07 05:03 | 24.34698 | 104.64905 | 36268 ft | 480 kts | 282° |
| 2026-05-07 05:04 | 24.36255 | 104.57767 | 36264 ft | 479 kts | 283° |
| 2026-05-07 05:04 | 24.37806 | 104.50640 | 36266 ft | 480 kts | 282° |
| 2026-05-07 05:05 | 24.39361 | 104.43478 | 36272 ft | 479 kts | 282° |
| 2026-05-07 05:05 | 24.40900 | 104.36372 | 36286 ft | 479 kts | 282° |
| 2026-05-07 05:06 | 24.42405 | 104.29410 | 36298 ft | 478 kts | 282° |
| 2026-05-07 05:06 | 24.43923 | 104.22368 | 36297 ft | 471 kts | 282° |
| 2026-05-07 05:07 | 24.45421 | 104.15407 | 36289 ft | 458 kts | 282° |
| 2026-05-07 05:07 | 24.46862 | 104.08685 | 36147 ft | 443 kts | 282° |
| 2026-05-07 05:08 | 24.47562 | 104.05418 | 35308 ft | 444 kts | 282° |
| 2026-05-07 05:08 | 24.48278 | 104.02066 | 34294 ft | 447 kts | 282° |
| 2026-05-07 05:08 | 24.48988 | 103.98745 | 33486 ft | 446 kts | 282° |
| 2026-05-07 05:08 | 24.49702 | 103.95399 | 32710 ft | 444 kts | 282° |
| 2026-05-07 05:09 | 24.50404 | 103.92109 | 31968 ft | 443 kts | 282° |
| 2026-05-07 05:09 | 24.51113 | 103.88782 | 31186 ft | 442 kts | 282° |
| 2026-05-07 05:09 | 24.51808 | 103.85515 | 30598 ft | 436 kts | 282° |
| 2026-05-07 05:09 | 24.52495 | 103.82280 | 30168 ft | 428 kts | 282° |
| 2026-05-07 05:10 | 24.53172 | 103.79091 | 29706 ft | 433 kts | 282° |
| 2026-05-07 05:10 | 24.53860 | 103.75751 | 29172 ft | 442 kts | 280° |
| 2026-05-07 05:10 | 24.54204 | 103.72395 | 28634 ft | 439 kts | 272° |
| 2026-05-07 05:10 | 24.54299 | 103.69009 | 28115 ft | 434 kts | 272° |
| 2026-05-07 05:11 | 24.54372 | 103.65709 | 27590 ft | 429 kts | 272° |
| 2026-05-07 05:11 | 24.54442 | 103.62457 | 27068 ft | 424 kts | 271° |
| 2026-05-07 05:11 | 24.54511 | 103.59193 | 26531 ft | 420 kts | 271° |
| 2026-05-07 05:11 | 24.54579 | 103.55961 | 25992 ft | 419 kts | 271° |
| 2026-05-07 05:12 | 24.54645 | 103.52784 | 25463 ft | 416 kts | 271° |
| 2026-05-07 05:12 | 24.54711 | 103.49594 | 24916 ft | 414 kts | 271° |
| 2026-05-07 05:12 | 24.54775 | 103.46456 | 24371 ft | 411 kts | 271° |
| 2026-05-07 05:12 | 24.54840 | 103.43294 | 23832 ft | 407 kts | 271° |
| 2026-05-07 05:13 | 24.54902 | 103.40182 | 23293 ft | 405 kts | 271° |
| 2026-05-07 05:13 | 24.54965 | 103.37035 | 22744 ft | 403 kts | 271° |
| 2026-05-07 05:13 | 24.55025 | 103.33980 | 22214 ft | 400 kts | 271° |
| 2026-05-07 05:13 | 24.55084 | 103.30930 | 21685 ft | 398 kts | 271° |
| 2026-05-07 05:14 | 24.55159 | 103.27880 | 21139 ft | 396 kts | 273° |
| 2026-05-07 05:14 | 24.55584 | 103.24873 | 20604 ft | 394 kts | 283° |
| 2026-05-07 05:14 | 24.56352 | 103.21994 | 20057 ft | 391 kts | 285° |
| 2026-05-07 05:14 | 24.57172 | 103.19097 | 19495 ft | 388 kts | 286° |
| 2026-05-07 05:15 | 24.57981 | 103.16250 | 18940 ft | 384 kts | 286° |
| 2026-05-07 05:15 | 24.58778 | 103.13442 | 18393 ft | 381 kts | 286° |
| 2026-05-07 05:15 | 24.59571 | 103.10654 | 17854 ft | 379 kts | 286° |
| 2026-05-07 05:15 | 24.60374 | 103.07858 | 17305 ft | 377 kts | 286° |
| 2026-05-07 05:16 | 24.61162 | 103.05118 | 16767 ft | 374 kts | 286° |
| 2026-05-07 05:16 | 24.61936 | 103.02419 | 16483 ft | 363 kts | 286° |
| 2026-05-07 05:16 | 24.62688 | 102.99796 | 16402 ft | 347 kts | 286° |
| 2026-05-07 05:16 | 24.63401 | 102.97304 | 16288 ft | 332 kts | 286° |
| 2026-05-07 05:17 | 24.64092 | 102.94886 | 16153 ft | 320 kts | 286° |
| 2026-05-07 05:17 | 24.64747 | 102.92591 | 16021 ft | 308 kts | 286° |
| 2026-05-07 05:17 | 24.65381 | 102.90372 | 15895 ft | 296 kts | 285° |
| 2026-05-07 05:17 | 24.65993 | 102.88229 | 15758 ft | 285 kts | 286° |
| 2026-05-07 05:18 | 24.66586 | 102.86154 | 15632 ft | 275 kts | 286° |
| 2026-05-07 05:18 | 24.67149 | 102.84180 | 15511 ft | 264 kts | 286° |
| 2026-05-07 05:18 | 24.67694 | 102.82269 | 15284 ft | 258 kts | 286° |
| 2026-05-07 05:18 | 24.68260 | 102.80431 | 15079 ft | 250 kts | 294° |
| 2026-05-07 05:19 | 24.69226 | 102.78797 | 14849 ft | 253 kts | 304° |
| 2026-05-07 05:19 | 24.70304 | 102.77264 | 14486 ft | 252 kts | 306° |
| 2026-05-07 05:19 | 24.71394 | 102.75751 | 14145 ft | 249 kts | 306° |
| 2026-05-07 05:19 | 24.72474 | 102.74252 | 13837 ft | 250 kts | 306° |
| 2026-05-07 05:20 | 24.73571 | 102.72727 | 13528 ft | 249 kts | 306° |
| 2026-05-07 05:20 | 24.74649 | 102.71226 | 13226 ft | 248 kts | 306° |
| 2026-05-07 05:20 | 24.75724 | 102.69729 | 12928 ft | 248 kts | 307° |
| 2026-05-07 05:20 | 24.77029 | 102.68456 | 12632 ft | 253 kts | 330° |
| 2026-05-07 05:21 | 24.78769 | 102.68018 | 12315 ft | 260 kts | 0° |
| 2026-05-07 05:21 | 24.82048 | 102.69711 | 11659 ft | 263 kts | 37° |
| 2026-05-07 05:21 | 24.83513 | 102.70971 | 11324 ft | 261 kts | 38° |
| 2026-05-07 05:22 | 24.84933 | 102.72210 | 11028 ft | 255 kts | 38° |
| 2026-05-07 05:22 | 24.86307 | 102.73404 | 10931 ft | 237 kts | 39° |
| 2026-05-07 05:22 | 24.87567 | 102.74496 | 10858 ft | 225 kts | 39° |
| 2026-05-07 05:22 | 24.88798 | 102.75565 | 10828 ft | 221 kts | 38° |
| 2026-05-07 05:23 | 24.89985 | 102.76640 | 10829 ft | 218 kts | 40° |
| 2026-05-07 05:23 | 24.91155 | 102.77724 | 10840 ft | 218 kts | 39° |
| 2026-05-07 05:23 | 24.92365 | 102.78799 | 10759 ft | 221 kts | 38° |
| 2026-05-07 05:23 | 24.93546 | 102.79818 | 10491 ft | 208 kts | 38° |
| 2026-05-07 05:24 | 24.94661 | 102.80763 | 10241 ft | 193 kts | 38° |
| 2026-05-07 05:24 | 24.95688 | 102.81632 | 10025 ft | 180 kts | 38° |
| 2026-05-07 05:24 | 24.96665 | 102.82466 | 9817 ft | 174 kts | 39° |
| 2026-05-07 05:24 | 24.97631 | 102.83298 | 9598 ft | 171 kts | 40° |
| 2026-05-07 05:25 | 24.98557 | 102.84096 | 9386 ft | 169 kts | 40° |
| 2026-05-07 05:25 | 24.99499 | 102.84910 | 9169 ft | 168 kts | 40° |
| 2026-05-07 05:25 | 25.00408 | 102.85693 | 8961 ft | 167 kts | 40° |
| 2026-05-07 05:25 | 25.01337 | 102.86496 | 8742 ft | 166 kts | 40° |
| 2026-05-07 05:26 | 25.02255 | 102.87287 | 8524 ft | 165 kts | 40° |
| 2026-05-07 05:26 | 25.03149 | 102.88060 | 8314 ft | 163 kts | 39° |
| 2026-05-07 05:26 | 25.04045 | 102.88832 | 8101 ft | 162 kts | 39° |
| 2026-05-07 05:26 | 25.04944 | 102.89609 | 7890 ft | 161 kts | 39° |
| 2026-05-07 05:27 | 25.05840 | 102.90383 | 7676 ft | 160 kts | 39° |
| 2026-05-07 05:27 | 25.06726 | 102.91148 | 7471 ft | 159 kts | 39° |
| 2026-05-07 05:27 | 25.07588 | 102.91895 | 7288 ft | 157 kts | 38° |
| 2026-05-07 05:27 | 25.08477 | 102.92648 | 7062 ft | 158 kts | 39° |
| 2026-05-07 05:28 | 25.09322 | 102.93376 | 6936 ft | 153 kts | 39° |
| 2026-05-07 05:28 | 25.10119 | 102.94070 | 6920 ft | 123 kts | 40° |
| 2026-05-07 05:28 | 25.10671 | 102.94553 | 6920 ft | 78 kts | 39° |
| 2026-05-07 05:28 | 25.10962 | 102.94800 | 6920 ft | 31 kts | 21° |
| 2026-05-07 05:29 | 25.11129 | 102.94852 | 6920 ft | 19 kts | 8° |
| 2026-05-07 05:29 | 25.11206 | 102.94815 | 6920 ft | 7 kts | 285° |
| 2026-05-07 05:29 | 25.11164 | 102.94754 | 6920 ft | 11 kts | 214° |
| 2026-05-07 05:29 | 25.11097 | 102.94696 | 6920 ft | 14 kts | 219° |
| 2026-05-07 05:30 | 25.11013 | 102.94621 | 6920 ft | 15 kts | 220° |
| 2026-05-07 05:30 | 25.10966 | 102.94531 | 6920 ft | 13 kts | 275° |
| 2026-05-07 05:30 | 25.10958 | 102.94443 | 6920 ft | 11 kts | 232° |
| 2026-05-07 05:30 | 25.10894 | 102.94382 | 6920 ft | 13 kts | 220° |
| 2026-05-07 05:31 | 25.10811 | 102.94308 | 6920 ft | 16 kts | 218° |
| 2026-05-07 05:31 | 25.10718 | 102.94228 | 6920 ft | 17 kts | 218° |
| 2026-05-07 05:31 | 25.10618 | 102.94141 | 6920 ft | 20 kts | 219° |
| 2026-05-07 05:31 | 25.10500 | 102.94035 | 6920 ft | 21 kts | 217° |
| 2026-05-07 05:32 | 25.10389 | 102.93941 | 6920 ft | 19 kts | 218° |
| 2026-05-07 05:32 | 25.10286 | 102.93853 | 6920 ft | 18 kts | 217° |
| 2026-05-07 05:32 | 25.10184 | 102.93765 | 6920 ft | 18 kts | 218° |
| 2026-05-07 05:32 | 25.10087 | 102.93680 | 6920 ft | 17 kts | 217° |
| 2026-05-07 05:33 | 25.10056 | 102.93579 | 6920 ft | 14 kts | 300° |
| 2026-05-07 05:33 | 25.10110 | 102.93495 | 6920 ft | 12 kts | 319° |
| 2026-05-07 05:33 | 25.10184 | 102.93473 | 6920 ft | 10 kts | 357° |
| 2026-05-07 05:33 | 25.10200 | 102.93472 | 6920 ft | 1 kts | 357° |
| 2026-05-07 05:34 | 25.10213 | 102.93471 | 6920 ft | 1 kts | 358° |
| 2026-05-07 05:34 | 25.10214 | 102.93471 | 6920 ft | 0 kts | 358° |